Time;durP1;ratioP1;P1;durP2;ratioP2;P2;SDS_P1;SDS_P2;PMS_P1;PMS_P2;Temp;Humidity;BMP_temperature;BMP_pressure;BME280_temperature;BME280_humidity;BME280_pressure;Samples;Min_cycle;Max_cycle;Signal;HPM_P1;HPM_P2
2023/04/22 00:02:16;;;;;;;11.00;7.18;;;;;;;;;;4900034;29;20040;-68
2023/04/22 00:04:48;;;;;;;11.15;8.05;;;12.50;99.90;;;;;;4900199;29;20040;-67
2023/04/22 00:07:15;;;;;;;8.40;7.25;;;12.70;99.90;;;;;;4881419;29;20079;-67
2023/04/22 00:09:41;;;;;;;9.48;7.30;;;12.00;99.90;;;;;;4881003;29;20140;-67
2023/04/22 00:12:07;;;;;;;11.43;7.60;;;12.20;99.90;;;;;;4892234;29;20500;-67
2023/04/22 00:14:34;;;;;;;9.75;7.65;;;13.20;99.90;;;;;;4907903;29;20393;-68
2023/04/22 00:17:00;;;;;;;9.52;7.80;;;;;;;;;;4900072;29;20062;-67
2023/04/22 00:19:27;;;;;;;9.63;7.20;;;;;;;;;;4890759;29;20085;-67
2023/04/22 00:21:53;;;;;;;8.18;6.75;;;;;;;;;;4899903;29;20047;-67
2023/04/22 00:24:19;;;;;;;8.75;7.25;;;;;;;;;;4883159;29;20040;-67
2023/04/22 00:26:45;;;;;;;8.40;7.20;;;;;;;;;;4878434;29;20446;-67
2023/04/22 00:29:11;;;;;;;8.38;7.13;;;12.80;99.90;;;;;;4904823;29;20127;-67
2023/04/22 00:31:36;;;;;;;9.82;7.75;;;11.60;99.90;;;;;;4891258;29;20123;-67
2023/04/22 00:34:02;;;;;;;10.13;6.82;;;11.00;99.90;;;;;;4878694;29;20111;-67
2023/04/22 00:36:28;;;;;;;8.98;7.10;;;;;;;;;;4867300;29;20079;-67
2023/04/22 00:38:54;;;;;;;9.05;6.93;;;10.90;99.90;;;;;;4868421;29;20036;-67
2023/04/22 00:41:19;;;;;;;7.63;6.10;;;11.50;99.90;;;;;;4884434;29;20044;-67
2023/04/22 00:43:46;;;;;;;7.45;6.40;;;;;;;;;;4908308;29;20147;-67
2023/04/22 00:46:12;;;;;;;11.02;6.57;;;;;;;;;;4880665;29;20036;-67
2023/04/22 00:48:38;;;;;;;8.93;6.82;;;11.90;99.90;;;;;;4883662;29;20059;-67
2023/04/22 00:51:04;;;;;;;9.13;6.88;;;;;;;;;;4888792;29;20048;-67
2023/04/22 00:53:30;;;;;;;8.73;7.38;;;;;;;;;;4899288;29;20044;-67
2023/04/22 00:55:57;;;;;;;11.32;7.80;;;;;;;;;;4899146;29;20048;-67
2023/04/22 00:58:25;;;;;;;9.05;7.90;;;;;;;;;;4898816;29;20477;-67
2023/04/22 01:00:51;;;;;;;9.63;7.63;;;10.50;99.90;;;;;;4891117;29;20068;-67
2023/04/22 01:03:17;;;;;;;9.98;7.50;;;;;;;;;;4905357;29;20039;-67
2023/04/22 01:05:44;;;;;;;8.55;7.65;;;11.90;99.90;;;;;;4883003;29;20152;-67
2023/04/22 01:08:10;;;;;;;15.05;7.53;;;11.70;99.90;;;;;;4891159;29;20035;-68
2023/04/22 01:10:36;;;;;;;10.57;7.95;;;;;;;;;;4916085;29;20482;-68
2023/04/22 01:13:02;;;;;;;16.95;8.70;;;;;;;;;;4916388;29;20115;-68
2023/04/22 01:15:28;;;;;;;10.18;7.95;;;;;;;;;;4898964;29;20061;-68
2023/04/22 01:17:54;;;;;;;12.18;8.55;;;;;;;;;;4886800;29;20052;-68
2023/04/22 01:20:21;;;;;;;10.50;7.55;;;11.20;99.90;;;;;;4899056;29;20503;-68
2023/04/22 01:22:49;;;;;;;11.45;6.70;;;11.10;99.90;;;;;;4890080;29;20044;-68
2023/04/22 01:25:15;;;;;;;10.63;7.72;;;;;;;;;;4883327;29;20482;-68
2023/04/22 01:27:42;;;;;;;9.18;7.78;;;;;;;;;;4888491;29;20119;-68
2023/04/22 01:30:08;;;;;;;9.63;7.53;;;12.20;99.90;;;;;;4882128;29;20087;-67
2023/04/22 01:32:35;;;;;;;11.30;8.10;;;;;;;;;;4898782;29;20044;-67
2023/04/22 01:35:01;;;;;;;8.48;7.57;;;;;;;;;;4882942;29;20048;-67
2023/04/22 01:37:28;;;;;;;10.20;7.85;;;;;;;;;;4885050;29;20045;-67
2023/04/22 01:39:54;;;;;;;9.00;7.68;;;;;;;;;;4898622;29;20051;-67
2023/04/22 01:42:20;;;;;;;8.82;7.20;;;;;;;;;;4895196;29;20047;-67
2023/04/22 01:44:46;;;;;;;10.52;7.07;;;9.60;99.90;;;;;;4897086;29;20111;-67
2023/04/22 01:47:12;;;;;;;8.82;7.32;;;11.70;99.90;;;;;;4881948;29;20478;-67
2023/04/22 01:49:38;;;;;;;9.52;7.25;;;11.50;99.90;;;;;;4907628;29;20048;-67
2023/04/22 01:52:03;;;;;;;10.25;8.13;;;10.50;99.90;;;;;;4889453;29;20047;-67
2023/04/22 01:54:29;;;;;;;10.13;7.40;;;;;;;;;;4904353;29;20051;-67
2023/04/22 01:56:57;;;;;;;10.45;7.63;;;;;;;;;;4898236;29;20509;-68
2023/04/22 01:59:23;;;;;;;9.10;7.38;;;;;;;;;;4881508;29;20101;-68
2023/04/22 02:01:49;;;;;;;7.80;7.00;;;;;;;;;;4891918;29;20044;-68
2023/04/22 02:04:15;;;;;;;8.82;7.18;;;;;;;;;;4882662;29;20119;-67
2023/04/22 02:06:41;;;;;;;10.35;7.60;;;;;;;;;;4898465;29;20047;-67
2023/04/22 02:09:07;;;;;;;9.00;7.50;;;;;;;;;;4892809;29;20096;-67
2023/04/22 02:11:34;;;;;;;9.45;7.28;;;;;;;;;;4884171;29;20060;-67
2023/04/22 02:14:00;;;;;;;8.82;7.38;;;;;;;;;;4898109;29;20056;-67
2023/04/22 02:16:26;;;;;;;7.88;7.05;;;;;;;;;;4896661;29;20583;-67
2023/04/22 02:18:52;;;;;;;9.38;7.63;;;;;;;;;;4898393;29;20040;-68
2023/04/22 02:21:18;;;;;;;8.23;7.15;;;;;;;;;;4891131;29;20049;-68
2023/04/22 02:23:44;;;;;;;11.73;6.80;;;;;;;;;;4893382;29;20425;-68
2023/04/22 02:26:10;;;;;;;8.60;7.50;;;;;;;;;;4887633;29;20104;-68
2023/04/22 02:28:36;;;;;;;10.00;7.22;;;;;;;;;;4914606;29;20412;-68
2023/04/22 02:31:02;;;;;;;9.65;7.55;;;;;;;;;;4901876;29;20080;-67
2023/04/22 02:33:28;;;;;;;8.80;7.28;;;;;;;;;;4900313;29;20496;-68
2023/04/22 02:35:54;;;;;;;9.65;7.15;;;;;;;;;;4890865;29;20062;-68
2023/04/22 02:38:21;;;;;;;9.20;7.20;;;;;;;;;;4885048;29;20052;-68
2023/04/22 02:40:47;;;;;;;10.55;7.32;;;;;;;;;;4883626;29;20079;-68
2023/04/22 02:43:13;;;;;;;9.20;7.32;;;;;;;;;;4854207;29;20032;-68
2023/04/22 02:45:39;;;;;;;7.88;6.90;;;;;;;;;;4886143;29;20394;-68
2023/04/22 02:48:05;;;;;;;9.90;8.00;;;;;;;;;;4885149;29;20052;-68
2023/04/22 02:50:32;;;;;;;9.57;7.53;;;;;;;;;;4902665;29;20511;-68
2023/04/22 02:52:58;;;;;;;8.88;7.53;;;;;;;;;;4884957;29;20048;-68
2023/04/22 02:55:24;;;;;;;9.32;7.75;;;;;;;;;;4896900;29;20099;-67
2023/04/22 02:57:50;;;;;;;8.73;7.45;;;;;;;;;;4918229;29;20036;-67
2023/04/22 03:00:16;;;;;;;9.43;7.32;;;;;;;;;;4918585;29;20045;-67
2023/04/22 03:02:42;;;;;;;8.65;7.68;;;;;;;;;;4917940;29;20036;-67
2023/04/22 03:05:09;;;;;;;8.98;8.00;;;;;;;;;;4904600;29;20135;-68
2023/04/22 03:07:35;;;;;;;10.27;7.22;;;;;;;;;;4901196;29;20116;-67
2023/04/22 03:10:01;;;;;;;9.48;7.88;;;;;;;;;;4906740;29;20045;-67
2023/04/22 03:12:27;;;;;;;8.30;7.00;;;;;;;;;;4901244;29;20048;-67
2023/04/22 03:14:54;;;;;;;8.82;7.47;;;;;;;;;;4893624;29;20096;-67
2023/04/22 03:17:19;;;;;;;8.57;6.63;;;8.90;99.90;;;;;;4918264;29;20052;-67
2023/04/22 03:19:46;;;;;;;8.63;6.85;;;10.00;99.90;;;;;;4871168;29;20057;-67
2023/04/22 03:22:12;;;;;;;8.10;6.45;;;;;;;;;;4902003;29;20089;-67
2023/04/22 03:24:38;;;;;;;7.95;6.72;;;;;;;;;;4907680;29;21432;-67
2023/04/22 03:27:04;;;;;;;8.68;6.88;;;;;;;;;;4894181;29;20422;-67
2023/04/22 03:29:31;;;;;;;9.18;7.30;;;9.80;99.90;;;;;;4901280;29;20434;-67
2023/04/22 03:31:57;;;;;;;8.18;6.97;;;;;;;;;;4884371;29;20040;-67
2023/04/22 03:34:23;;;;;;;10.60;6.95;;;;;;;;;;4896072;29;20095;-68
2023/04/22 03:36:49;;;;;;;9.20;6.82;;;;;;;;;;4895502;29;20143;-67
2023/04/22 03:39:15;;;;;;;8.70;7.32;;;;;;;;;;4900862;29;20048;-67
2023/04/22 03:41:41;;;;;;;8.32;7.13;;;;;;;;;;4892913;29;20052;-67
2023/04/22 03:44:07;;;;;;;7.88;6.60;;;;;;;;;;4884252;29;20032;-67
2023/04/22 03:46:33;;;;;;;9.25;7.13;;;;;;;;;;4917727;29;20044;-67
2023/04/22 03:48:59;;;;;;;8.68;7.45;;;;;;;;;;4905540;29;20040;-67
2023/04/22 03:51:25;;;;;;;11.10;8.13;;;10.30;99.90;;;;;;4887494;29;20048;-67
2023/04/22 03:53:51;;;;;;;10.20;7.82;;;;;;;;;;4887048;29;20096;-67
2023/04/22 03:56:17;;;;;;;10.82;8.05;;;;;;;;;;4884000;29;20116;-67
2023/04/22 03:58:43;;;;;;;10.23;8.10;;;;;;;;;;4894866;29;20048;-67
2023/04/22 04:01:10;;;;;;;9.73;7.53;;;;;;;;;;4900319;29;20123;-67
2023/04/22 04:03:36;;;;;;;9.98;7.82;;;;;;;;;;4897576;29;20044;-67
2023/04/22 04:06:02;;;;;;;10.73;8.10;;;;;;;;;;4884338;29;20400;-67
2023/04/22 04:08:28;;;;;;;9.68;7.95;;;;;;;;;;4891494;29;20052;-67
2023/04/22 04:10:54;;;;;;;10.50;8.45;;;;;;;;;;4886570;29;20054;-67
2023/04/22 04:13:20;;;;;;;10.07;7.57;;;;;;;;;;4869989;29;20512;-67
2023/04/22 04:15:47;;;;;;;9.40;7.63;;;;;;;;;;4886006;29;20044;-67
2023/04/22 04:18:13;;;;;;;12.50;8.40;;;;;;;;;;4894202;29;20096;-67
2023/04/22 04:20:39;;;;;;;11.23;8.02;;;;;;;;;;4891835;29;20100;-67
2023/04/22 04:23:06;;;;;;;9.25;7.90;;;;;;;;;;4897350;29;20044;-67
2023/04/22 04:25:37;;;;;;;11.43;8.48;;;;;;;;;;4866926;29;20040;-67
2023/04/22 04:28:10;;;;;;;10.02;8.32;;;;;;;;;;4881442;29;20531;-67
2023/04/22 04:30:36;;;;;;;;;;;;;;;;;;4883390;29;20501;-67
2023/04/22 04:33:05;;;;;;;10.13;8.68;;;;;;;;;;4904051;29;19947;-67
2023/04/22 04:35:33;;;;;;;11.35;8.88;;;9.20;99.90;;;;;;4883764;29;20139;-67
2023/04/22 04:37:59;;;;;;;10.35;8.60;;;9.20;99.90;;;;;;4897900;29;20151;-67
2023/04/22 04:40:28;;;;;;;10.48;8.70;;;;;;;;;;4888135;29;20044;-66
2023/04/22 04:42:54;;;;;;;9.30;8.25;;;;;;;;;;4886866;29;20040;-67
2023/04/22 04:45:24;;;;;;;11.07;8.75;;;;;;;;;;4916889;29;20063;-67
2023/04/22 04:47:51;;;;;;;14.80;9.13;;;;;;;;;;4899374;29;20047;-67
2023/04/22 04:50:19;;;;;;;13.55;10.98;;;;;;;;;;4870650;29;20464;-67
2023/04/22 04:52:47;;;;;;;12.20;9.52;;;9.20;99.90;;;;;;4909055;29;20048;-71
2023/04/22 04:55:14;;;;;;;14.00;9.88;;;;;;;;;;4899741;29;20049;-67
2023/04/22 04:57:40;;;;;;;15.02;9.68;;;;;;;;;;4866964;29;20036;-67
2023/04/22 05:00:07;;;;;;;12.30;9.48;;;8.20;99.90;;;;;;4876500;29;20120;-67
2023/04/22 05:02:33;;;;;;;13.23;10.43;;;;;;;;;;4885315;29;20131;-67
2023/04/22 05:04:59;;;;;;;11.88;10.02;;;;;;;;;;4869588;29;20138;-67
2023/04/22 05:07:25;;;;;;;12.05;10.00;;;;;;;;;;4879877;29;20040;-67
2023/04/22 05:09:51;;;;;;;11.82;9.68;;;;;;;;;;4894127;29;20036;-67
2023/04/22 05:12:17;;;;;;;11.50;10.30;;;;;;;;;;4888567;29;20071;-67
2023/04/22 05:14:45;;;;;;;12.75;9.60;;;;;;;;;;4876742;29;20063;-67
2023/04/22 05:17:11;;;;;;;13.90;9.27;;;;;;;;;;4892162;29;20048;-67
2023/04/22 05:19:37;;;;;;;13.02;9.98;;;;;;;;;;4884618;29;20045;-67
2023/04/22 05:22:03;;;;;;;12.95;9.98;;;;;;;;;;4869111;29;20052;-67
2023/04/22 05:24:29;;;;;;;11.95;9.57;;;;;;;;;;4887253;29;20040;-67
2023/04/22 05:26:56;;;;;;;12.25;10.10;;;;;;;;;;4895680;29;20513;-67
2023/04/22 05:29:22;;;;;;;10.98;9.63;;;;;;;;;;4874744;29;20075;-67
2023/04/22 05:31:48;;;;;;;12.27;9.52;;;;;;;;;;4892078;29;20095;-67
2023/04/22 05:34:14;;;;;;;12.10;10.02;;;;;;;;;;4875001;29;20072;-67
2023/04/22 05:36:40;;;;;;;11.43;9.23;;;;;;;;;;4907393;29;20039;-67
2023/04/22 05:39:06;;;;;;;13.85;9.93;;;;;;;;;;4891762;29;20098;-67
2023/04/22 05:41:32;;;;;;;13.02;9.60;;;;;;;;;;4890036;29;20048;-67
2023/04/22 05:43:58;;;;;;;10.80;9.68;;;;;;;;;;4890628;29;20036;-67
2023/04/22 05:46:24;;;;;;;13.90;10.65;;;;;;;;;;4891555;29;20047;-67
2023/04/22 05:48:51;;;;;;;13.55;10.27;;;;;;;;;;4888741;29;20051;-67
2023/04/22 05:51:17;;;;;;;12.25;10.15;;;;;;;;;;4907396;29;20493;-67
2023/04/22 05:53:43;;;;;;;12.57;9.88;;;;;;;;;;4906917;29;20043;-67
2023/04/22 05:56:09;;;;;;;12.02;9.55;;;;;;;;;;4908257;29;20036;-67
2023/04/22 05:58:36;;;;;;;14.45;10.52;;;;;;;;;;4892451;29;20123;-68
2023/04/22 06:01:02;;;;;;;13.13;10.02;;;;;;;;;;4913516;29;20442;-68
2023/04/22 06:03:29;;;;;;;11.75;10.20;;;;;;;;;;4893372;29;20123;-68
2023/04/22 06:05:55;;;;;;;14.82;11.02;;;;;;;;;;4874872;29;20040;-66
2023/04/22 06:08:21;;;;;;;16.05;11.57;;;;;;;;;;4889340;29;20508;-67
2023/04/22 06:10:47;;;;;;;13.25;10.95;;;;;;;;;;4887181;29;20045;-67
2023/04/22 06:13:13;;;;;;;14.18;11.02;;;;;;;;;;4898322;29;20051;-67
2023/04/22 06:15:39;;;;;;;14.82;12.25;;;;;;;;;;4896841;29;20182;-67
2023/04/22 06:18:05;;;;;;;14.35;11.95;;;;;;;;;;4886923;29;20059;-67
2023/04/22 06:20:31;;;;;;;15.35;11.50;;;;;;;;;;4881290;29;20048;-67
2023/04/22 06:22:58;;;;;;;15.00;11.88;;;;;;;;;;4890598;29;20033;-67
2023/04/22 06:25:24;;;;;;;14.75;10.75;;;;;;;;;;4889590;29;21492;-67
2023/04/22 06:27:50;;;;;;;16.02;11.57;;;;;;;;;;4883047;29;20119;-67
2023/04/22 06:30:16;;;;;;;15.50;11.88;;;;;;;;;;4908518;29;20049;-66
2023/04/22 06:32:42;;;;;;;15.15;12.55;;;;;;;;;;4886714;29;20107;-66
2023/04/22 06:35:09;;;;;;;17.30;12.98;;;;;;;;;;4897859;29;20107;-67
2023/04/22 06:37:35;;;;;;;13.90;12.00;;;;;;;;;;4885514;29;20059;-66
2023/04/22 06:40:01;;;;;;;16.35;12.27;;;;;;;;;;4888983;29;20041;-67
2023/04/22 06:42:27;;;;;;;17.17;12.90;;;;;;;;;;4910971;29;20115;-67
2023/04/22 06:44:54;;;;;;;16.40;12.30;;;;;;;;;;4889525;29;20047;-67
2023/04/22 06:47:20;;;;;;;14.15;11.32;;;;;;;;;;4889730;29;20561;-67
2023/04/22 06:49:46;;;;;;;14.40;11.93;;;;;;;;;;4878990;29;20131;-67
2023/04/22 06:52:12;;;;;;;17.85;12.02;;;;;;;;;;4886991;29;20079;-67
2023/04/22 06:54:38;;;;;;;17.65;12.60;;;;;;;;;;4885413;29;20048;-67
2023/04/22 06:57:04;;;;;;;17.58;13.05;;;;;;;;;;4887467;29;20735;-67
2023/04/22 06:59:30;;;;;;;16.13;12.63;;;;;;;;;;4891306;29;20135;-67
2023/04/22 07:01:57;;;;;;;17.35;12.63;;;;;;;;;;4889436;29;20040;-67
2023/04/22 07:04:23;;;;;;;15.45;12.27;;;;;;;;;;4890748;29;20127;-67
2023/04/22 07:06:49;;;;;;;15.88;12.68;;;;;;;;;;4889999;29;20477;-67
2023/04/22 07:09:15;;;;;;;20.15;12.35;;;;;;;;;;4894750;29;20070;-67
2023/04/22 07:11:41;;;;;;;15.35;12.85;;;;;;;;;;4893439;29;20480;-68
2023/04/22 07:14:07;;;;;;;15.80;12.73;;;;;;;;;;4897841;29;20044;-68
2023/04/22 07:16:33;;;;;;;16.83;12.13;;;;;;;;;;4889102;29;20044;-68
2023/04/22 07:18:59;;;;;;;15.27;12.60;;;;;;;;;;4897669;29;20458;-69
2023/04/22 07:21:25;;;;;;;16.40;11.95;;;;;;;;;;4885596;29;20366;-66
2023/04/22 07:23:51;;;;;;;16.90;12.73;;;;;;;;;;4883480;29;20084;-67
2023/04/22 07:26:18;;;;;;;18.05;13.25;;;;;;;;;;4895351;29;20037;-66
2023/04/22 07:28:44;;;;;;;17.05;12.68;;;;;;;;;;4919648;29;20516;-66
2023/04/22 07:31:10;;;;;;;16.88;12.88;;;;;;;;;;4887525;29;20095;-66
2023/04/22 07:33:36;;;;;;;17.55;12.32;;;;;;;;;;4902736;29;20489;-66
2023/04/22 07:36:02;;;;;;;17.42;13.20;;;;;;;;;;4919718;29;20051;-67
2023/04/22 07:38:28;;;;;;;18.98;13.45;;;;;;;;;;4902737;29;20044;-67
2023/04/22 07:40:54;;;;;;;17.70;12.90;;;;;;;;;;4903056;29;20498;-67
2023/04/22 07:43:20;;;;;;;20.20;14.27;;;;;;;;;;4919645;29;20040;-67
2023/04/22 07:45:46;;;;;;;16.98;12.85;;;;;;;;;;4919631;29;20040;-67
2023/04/22 07:48:12;;;;;;;18.77;13.77;;;;;;;;;;4919653;29;20044;-67
2023/04/22 07:50:39;;;;;;;17.75;13.70;;;;;;;;;;4902493;29;20052;-67
2023/04/22 07:53:05;;;;;;;17.27;13.77;;;;;;;;;;4902617;29;20366;-67
2023/04/22 07:55:31;;;;;;;16.92;13.40;;;;;;;;;;4902554;29;20051;-66
2023/04/22 07:57:59;;;;;;;19.35;14.10;;;;;;;;;;4902516;29;20083;-67
2023/04/22 08:00:25;;;;;;;15.98;13.05;;;;;;;;;;4902302;29;20457;-67
2023/04/22 08:02:51;;;;;;;15.18;12.38;;;;;;;;;;4919277;29;20083;-67
2023/04/22 08:05:18;;;;;;;19.80;12.45;;;;;;;;;;4902220;29;20040;-67
2023/04/22 08:07:45;;;;;;;18.20;13.77;;;;;;;;;;4902108;29;20044;-67
2023/04/22 08:10:11;;;;;;;18.10;13.30;;;;;;;;;;4902067;29;20467;-67
2023/04/22 08:12:37;;;;;;;17.98;14.38;;;;;;;;;;4902110;29;20047;-67
2023/04/22 08:15:03;;;;;;;17.13;13.75;;;;;;;;;;4886368;29;20052;-67
2023/04/22 08:17:29;;;;;;;16.05;13.15;;;;;;;;;;4901800;29;20083;-67
2023/04/22 08:19:55;;;;;;;18.13;13.88;;;;;;;;;;4901916;29;20076;-68
2023/04/22 08:22:22;;;;;;;18.90;13.85;;;;;;;;;;4902178;29;20040;-67
2023/04/22 08:24:48;;;;;;;20.13;14.23;;;;;;;;;;4901997;29;20052;-67
2023/04/22 08:27:15;;;;;;;17.70;14.20;;;;;;;;;;4901163;29;20055;-67
2023/04/22 08:29:41;;;;;;;17.83;13.95;;;;;;;;;;4901952;29;20084;-67
2023/04/22 08:32:07;;;;;;;18.92;14.70;;;;;;;;;;4901802;29;20175;-67
2023/04/22 08:34:33;;;;;;;19.27;14.45;;;;;;;;;;4901774;29;20048;-67
2023/04/22 08:36:59;;;;;;;18.02;13.98;;;;;;;;;;4918908;29;20040;-67
2023/04/22 08:39:25;;;;;;;21.42;14.88;;;;;;;;;;4901644;29;20488;-67
2023/04/22 08:41:52;;;;;;;19.17;14.25;;;13.00;99.90;;;;;;4918532;29;20096;-67
2023/04/22 08:44:18;;;;;;;20.98;14.70;;;;;;;;;;4918753;29;20044;-68
2023/04/22 08:46:45;;;;;;;18.55;14.25;;;;;;;;;;4901689;29;20099;-67
2023/04/22 08:49:14;;;;;;;22.65;15.10;;;13.10;99.90;;;;;;4901716;29;20067;-67
2023/04/22 08:51:40;;;;;;;17.73;13.55;;;;;;;;;;4885926;29;20047;-68
2023/04/22 08:54:06;;;;;;;20.10;15.00;;;12.30;99.90;;;;;;4901358;29;20082;-68
2023/04/22 08:56:32;;;;;;;20.05;14.38;;;;;;;;;;4901098;29;20079;-67
2023/04/22 08:58:58;;;;;;;19.08;14.15;;;;;;;;;;4901230;29;20044;-67
2023/04/22 09:01:25;;;;;;;20.13;14.38;;;;;;;;;;4901423;29;20083;-67
2023/04/22 09:03:52;;;;;;;19.27;14.63;;;;;;;;;;4901471;29;20477;-66
2023/04/22 09:06:19;;;;;;;18.73;14.35;;;13.60;99.90;;;;;;4918502;29;20048;-67
2023/04/22 09:08:46;;;;;;;16.98;13.98;;;14.00;99.90;;;;;;4918224;29;20342;-67
2023/04/22 09:11:12;;;;;;;32.38;15.05;;;;;;;;;;4901389;29;20044;-67
2023/04/22 09:13:38;;;;;;;19.30;13.93;;;;;;;;;;4901055;29;20040;-67
2023/04/22 09:16:04;;;;;;;16.65;13.60;;;;;;;;;;4901015;29;20064;-67
2023/04/22 09:18:38;;;;;;;20.05;14.95;;;;;;;;;;4900910;29;20552;-67
2023/04/22 09:21:04;;;;;;;20.70;15.15;;;;;;;;;;4900871;29;20055;-67
2023/04/22 09:23:30;;;;;;;17.85;14.18;;;;;;;;;;4901097;29;20040;-67
2023/04/22 09:25:57;;;;;;;19.95;14.80;;;;;;;;;;4901100;29;20056;-68
2023/04/22 09:28:23;;;;;;;18.45;14.52;;;;;;;;;;4885410;29;20076;-68
2023/04/22 09:30:49;;;;;;;21.10;15.35;;;;;;;;;;4900736;29;20056;-68
2023/04/22 09:33:16;;;;;;;23.17;15.95;;;;;;;;;;4900843;29;20067;-67
2023/04/22 09:35:42;;;;;;;23.80;16.20;;;14.50;99.90;;;;;;4885502;29;20075;-68
2023/04/22 09:38:11;;;;;;;22.08;16.02;;;14.50;99.90;;;;;;4917929;29;20054;-68
2023/04/22 09:40:40;;;;;;;20.58;16.20;;;14.40;99.90;;;;;;4900803;29;20048;-68
2023/04/22 09:43:08;;;;;;;25.33;16.40;;;;;;;;;;4900541;29;20132;-68
2023/04/22 09:45:34;;;;;;;23.50;16.88;;;;;;;;;;4900765;29;20067;-67
2023/04/22 09:48:10;;;;;;;23.30;16.75;;;15.00;99.90;;;;;;4900827;29;20036;-67
2023/04/22 09:50:37;;;;;;;21.63;16.30;;;14.80;99.90;;;;;;4900625;29;20044;-66
2023/04/22 09:53:09;;;;;;;23.80;18.15;;;15.00;99.90;;;;;;4900360;29;20083;-67
2023/04/22 09:55:38;;;;;;;23.65;17.35;;;15.70;99.90;;;;;;4917171;29;20052;-68
2023/04/22 09:58:08;;;;;;;26.35;17.80;;;15.30;99.90;;;;;;4900304;29;20043;-68
2023/04/22 10:00:36;;;;;;;21.63;16.92;;;;;;;;;;4900381;29;20040;-68
2023/04/22 10:03:03;;;;;;;21.73;16.88;;;15.90;99.90;;;;;;4917408;29;20055;-67
2023/04/22 10:05:30;;;;;;;25.20;17.33;;;;;;;;;;4885084;29;20040;-68
2023/04/22 10:07:56;;;;;;;20.05;16.83;;;;;;;;;;4900312;29;20043;-68
2023/04/22 10:10:23;;;;;;;22.48;17.23;;;15.60;99.90;;;;;;4884815;29;20393;-68
2023/04/22 10:12:49;;;;;;;24.23;17.13;;;;;;;;;;4900322;29;20110;-68
2023/04/22 10:15:15;;;;;;;26.10;17.42;;;16.30;99.90;;;;;;4884729;29;20056;-68
2023/04/22 10:17:42;;;;;;;23.98;16.85;;;;;;;;;;4900303;29;20060;-68
2023/04/22 10:20:14;;;;;;;21.63;15.32;;;15.60;99.90;;;;;;4900096;29;20048;-68
2023/04/22 10:22:42;;;;;;;22.52;16.05;;;15.50;99.90;;;;;;4900308;29;20062;-69
2023/04/22 10:25:19;;;;;;;18.73;15.35;;;14.80;99.90;;;;;;4899986;29;20052;-69
2023/04/22 10:28:02;;;;;;;19.70;14.77;;;16.00;99.90;;;;;;4899976;29;20044;-68
2023/04/22 10:30:29;;;;;;;18.83;14.05;;;16.10;99.90;;;;;;4899921;29;20497;-68
2023/04/22 10:32:56;;;;;;;17.27;13.55;;;;;;;;;;4899936;29;20052;-68
2023/04/22 10:35:28;;;;;;;20.05;14.70;;;15.60;99.90;;;;;;4884419;29;20056;-68
2023/04/22 10:37:54;;;;;;;18.45;14.88;;;;;;;;;;4899644;29;20428;-68
2023/04/22 10:40:21;;;;;;;20.30;14.93;;;;;;;;;;4884391;29;20044;-67
2023/04/22 10:42:52;;;;;;;19.15;15.07;;;17.20;99.90;;;;;;4899797;29;20100;-68
2023/04/22 10:45:19;;;;;;;22.58;15.40;;;;;;;;;;4899779;29;20056;-68
2023/04/22 10:47:45;;;;;;;18.98;13.85;;;;;;;;;;4884457;29;20044;-68
2023/04/22 10:50:23;;;;;;;18.15;14.70;;;16.50;99.90;;;;;;4918232;29;20048;-68
2023/04/22 10:52:58;;;;;;;20.30;15.82;;;16.50;99.90;;;;;;4903803;29;20123;-68
2023/04/22 10:55:25;;;;;;;21.83;15.48;;;16.70;99.90;;;;;;4920619;29;20111;-68
2023/04/22 10:57:52;;;;;;;19.73;15.00;;;16.90;99.90;;;;;;4920296;29;20507;-68
2023/04/22 11:00:18;;;;;;;20.48;14.90;;;;;;;;;;4903498;29;20055;-69
2023/04/22 11:02:45;;;;;;;20.63;14.82;;;17.20;99.90;;;;;;4903677;29;20385;-68
2023/04/22 11:05:19;;;;;;;21.83;15.68;;;17.70;99.90;;;;;;4920417;29;20072;-68
2023/04/22 11:07:48;;;;;;;17.42;14.40;;;17.30;99.90;;;;;;4903500;29;20909;-68
2023/04/22 11:10:31;;;;;;;17.45;13.27;;;17.20;99.90;;;;;;4903406;29;20092;-68
2023/04/22 11:12:57;;;;;;;20.80;15.65;;;17.40;99.90;;;;;;4903617;29;20404;-68
2023/04/22 11:15:23;;;;;;;19.58;14.75;;;;;;;;;;4902981;29;20157;-68
2023/04/22 11:17:52;;;;;;;19.23;14.38;;;17.50;99.90;;;;;;4920259;29;20052;-68
2023/04/22 11:20:18;;;;;;;18.67;14.02;;;;;;;;;;4903165;29;20048;-68
2023/04/22 11:22:47;;;;;;;19.73;13.90;;;17.50;99.90;;;;;;4903040;29;20041;-68
2023/04/22 11:25:13;;;;;;;17.10;13.65;;;;;;;;;;4902908;29;20481;-68
2023/04/22 11:27:42;;;;;;;22.27;13.95;;;17.50;99.90;;;;;;4902938;29;20152;-68
2023/04/22 11:30:13;;;;;;;19.50;13.07;;;18.50;99.90;;;;;;4920059;29;20048;-68
2023/04/22 11:32:41;;;;;;;17.05;13.65;;;17.10;99.90;;;;;;4920024;29;20139;-68
2023/04/22 11:35:29;;;;;;;17.27;13.15;;;17.90;99.90;;;;;;4902958;29;20040;-68
2023/04/22 11:38:07;;;;;;;17.88;12.75;;;17.80;99.90;;;;;;4919616;29;20040;-68
2023/04/22 11:40:38;;;;;;;19.80;13.65;;;17.50;99.90;;;;;;4902748;29;20063;-68
2023/04/22 11:43:06;;;;;;;18.10;14.18;;;17.70;99.90;;;;;;4919680;29;20032;-68
2023/04/22 11:45:33;;;;;;;19.75;13.38;;;17.60;99.90;;;;;;4902895;29;20040;-69
2023/04/22 11:48:00;;;;;;;17.60;13.38;;;;;;;;;;4919452;29;20475;-69
2023/04/22 11:50:32;;;;;;;18.33;13.98;;;17.70;99.90;;;;;;4902552;29;20082;-69
2023/04/22 11:53:12;;;;;;;14.98;13.02;;;18.70;99.90;;;;;;4902522;29;20047;-69
2023/04/22 11:55:39;;;;;;;18.17;13.35;;;18.70;99.90;;;;;;4919727;29;20079;-69
2023/04/22 11:58:06;;;;;;;18.88;13.50;;;16.90;99.90;;;;;;4902419;29;20051;-69
2023/04/22 12:00:45;;;;;;;19.73;13.90;;;17.90;99.90;;;;;;4919253;29;20066;-69
2023/04/22 12:03:14;;;;;;;17.33;12.02;;;;;;;;;;4918672;29;20044;-69
2023/04/22 12:06:00;;;;;;;15.82;12.05;;;17.70;99.90;;;;;;4902378;29;20096;-69
2023/04/22 12:08:41;;;;;;;16.02;13.32;;;17.30;99.90;;;;;;4902374;29;20459;-69
2023/04/22 12:11:09;;;;;;;16.52;12.50;;;18.20;99.90;;;;;;4919404;29;20040;-69
2023/04/22 12:13:39;;;;;;;19.05;13.15;;;18.90;99.90;;;;;;4902164;29;20044;-69
2023/04/22 12:16:13;;;;;;;19.50;13.07;;;18.00;99.90;;;;;;4902018;29;20060;-69
2023/04/22 12:18:41;;;;;;;16.17;13.20;;;18.50;99.90;;;;;;4886465;29;20044;-69
2023/04/22 12:21:07;;;;;;;18.00;12.90;;;;;;;;;;4919044;29;20111;-69
2023/04/22 12:23:44;;;;;;;15.30;12.85;;;17.80;99.90;;;;;;4886310;29;20050;-69
2023/04/22 12:26:11;;;;;;;17.27;13.02;;;;;;;;;;4901883;29;20044;-69
2023/04/22 12:28:38;;;;;;;15.98;13.35;;;;;;;;;;4901969;29;20052;-69
2023/04/22 12:31:04;;;;;;;16.92;12.75;;;18.70;99.90;;;;;;4886950;29;20397;-69
2023/04/22 12:33:30;;;;;;;16.00;13.32;;;18.10;99.90;;;;;;4902136;29;20052;-69
2023/04/22 12:35:56;;;;;;;19.85;13.45;;;18.10;99.90;;;;;;4886468;29;20047;-68
2023/04/22 12:38:22;;;;;;;15.00;11.85;;;18.20;99.90;;;;;;4855485;29;20044;-68
2023/04/22 12:40:47;;;;;;;18.13;13.00;;;17.20;99.90;;;;;;4901564;29;20496;-68
2023/04/22 12:43:13;;;;;;;16.50;13.32;;;17.70;99.90;;;;;;4901678;29;20052;-68
2023/04/22 12:45:39;;;;;;;19.30;13.43;;;18.30;99.90;;;;;;4901757;29;20043;-68
2023/04/22 12:48:05;;;;;;;17.38;12.98;;;;;;;;;;4918498;29;20044;-68
2023/04/22 12:50:31;;;;;;;17.85;13.10;;;18.30;99.90;;;;;;4901514;29;20523;-69
2023/04/22 12:52:57;;;;;;;16.80;13.35;;;18.20;99.90;;;;;;4918341;29;20040;-68
2023/04/22 12:55:23;;;;;;;20.27;12.68;;;18.20;99.90;;;;;;4901331;29;20504;-68
2023/04/22 12:57:52;;;;;;;17.40;13.30;;;;;;;;;;4918315;29;20048;-68
2023/04/22 13:00:19;;;;;;;22.70;14.05;;;18.20;99.90;;;;;;4918544;29;20096;-68
2023/04/22 13:02:46;;;;;;;15.63;12.98;;;17.90;99.90;;;;;;4901495;29;20403;-69
2023/04/22 13:05:13;;;;;;;15.45;12.73;;;18.00;99.90;;;;;;4901350;29;20071;-69
2023/04/22 13:07:42;;;;;;;17.75;13.23;;;17.90;99.90;;;;;;4901259;29;20047;-69
2023/04/22 13:10:11;;;;;;;17.95;12.55;;;16.70;99.90;;;;;;4886435;29;20074;-69
2023/04/22 13:12:38;;;;;;;16.60;12.98;;;18.40;99.90;;;;;;4900883;29;20071;-67
2023/04/22 13:15:05;;;;;;;23.95;14.35;;;18.70;99.90;;;;;;4900927;29;20052;-68
2023/04/22 13:17:32;;;;;;;19.92;13.40;;;17.70;99.90;;;;;;4900956;29;20496;-67
2023/04/22 13:19:58;;;;;;;26.48;17.52;;;;;;;;;;4901005;29;20048;-68
2023/04/22 13:22:24;;;;;;;23.13;18.17;;;;;;;;;;4901198;29;20040;-68
2023/04/22 13:24:50;;;;;;;23.20;19.05;;;16.30;99.90;;;;;;4917878;29;20040;-68
2023/04/22 13:27:16;;;;;;;23.92;19.88;;;;;;;;;;4917751;29;20044;-68
2023/04/22 13:29:43;;;;;;;22.20;18.50;;;17.10;99.90;;;;;;4885616;29;20455;-68
2023/04/22 13:32:09;;;;;;;24.35;19.58;;;;;;;;;;4885631;29;20400;-68
2023/04/22 13:34:35;;;;;;;22.60;19.35;;;16.50;99.90;;;;;;4917704;29;20048;-68
2023/04/22 13:37:01;;;;;;;24.92;19.00;;;16.90;99.90;;;;;;4900762;29;20052;-68
2023/04/22 13:39:26;;;;;;;22.95;19.17;;;15.90;99.90;;;;;;4900555;29;20048;-68
2023/04/22 13:41:53;;;;;;;25.15;19.42;;;16.30;99.90;;;;;;4885046;29;20168;-68
2023/04/22 13:44:19;;;;;;;24.30;19.65;;;14.60;99.90;;;;;;4900735;29;20083;-68
2023/04/22 13:46:45;;;;;;;24.35;19.17;;;14.70;99.90;;;;;;4917599;29;20051;-68